createdAt,value
2022-09-27T00:01:11.853Z,0.80
2022-09-27T00:03:39.662Z,1.20
2022-09-27T00:06:11.621Z,0.93
2022-09-27T00:08:38.781Z,1.15
2022-09-27T00:11:13.558Z,1.13
2022-09-27T00:13:40.882Z,0.70
2022-09-27T00:16:07.909Z,1.05
2022-09-27T00:18:35.131Z,1.05
2022-09-27T00:21:13.616Z,1.10
2022-09-27T00:23:41.412Z,0.88
2022-09-27T00:26:12.489Z,1.02
2022-09-27T00:28:39.450Z,0.95
2022-09-27T00:31:20.961Z,0.90
2022-09-27T00:33:53.342Z,0.88
2022-09-27T00:36:21.871Z,1.20
2022-09-27T00:38:49.942Z,1.17
2022-09-27T00:41:23.348Z,1.10
2022-09-27T00:44:01.202Z,1.00
2022-09-27T00:46:44.334Z,0.95
2022-09-27T00:49:29.194Z,1.08
2022-09-27T00:52:03.219Z,1.00
2022-09-27T00:54:33.694Z,1.10
2022-09-27T00:57:02.067Z,1.20
2022-09-27T01:00:03.380Z,1.20
2022-09-27T01:02:31.637Z,1.00
2022-09-27T01:04:59.664Z,1.20
2022-09-27T01:07:26.652Z,1.00
2022-09-27T01:09:54.026Z,1.20
2022-09-27T01:12:39.116Z,1.20
2022-09-27T01:15:32.752Z,1.13
2022-09-27T01:18:20.045Z,0.80
2022-09-27T01:21:24.607Z,0.90
2022-09-27T01:24:54.955Z,0.88
2022-09-27T01:27:47.927Z,0.83
2022-09-27T01:30:23.482Z,0.90
2022-09-27T01:33:15.319Z,1.17
2022-09-27T01:36:16.114Z,0.98
2022-09-27T01:39:23.238Z,0.77
2022-09-27T01:42:22.446Z,0.80
2022-09-27T01:45:21.228Z,1.00
2022-09-27T01:48:14.510Z,0.70
2022-09-27T01:51:20.247Z,0.82
2022-09-27T01:58:56.331Z,1.00
2022-09-27T02:01:28.036Z,1.25
2022-09-27T02:03:59.088Z,0.90
2022-09-27T02:06:59.133Z,0.82
2022-09-27T02:10:02.627Z,0.90
2022-09-27T02:13:05.959Z,0.73
2022-09-27T02:15:57.560Z,0.80
2022-09-27T02:19:02.649Z,0.73
2022-09-27T02:21:55.754Z,1.10
2022-09-27T02:24:40.352Z,0.88
2022-09-27T02:27:22.610Z,1.23
2022-09-27T02:30:02.458Z,1.10
2022-09-27T02:32:31.031Z,1.27
2022-09-27T02:35:02.608Z,0.95
2022-09-27T02:37:30.342Z,1.33
2022-09-27T02:39:58.014Z,1.10
2022-09-27T02:42:26.004Z,1.00
2022-09-27T02:44:53.292Z,1.08
2022-09-27T02:48:13.213Z,1.35
2022-09-27T02:51:37.430Z,1.80
2022-09-27T02:54:40.834Z,1.08
2022-09-27T02:57:41.384Z,1.10
2022-09-27T03:00:21.351Z,1.20
2022-09-27T03:03:32.027Z,1.30
2022-09-27T03:08:33.694Z,1.10
2022-09-27T03:11:00.995Z,1.33
2022-09-27T03:13:28.354Z,1.15
2022-09-27T03:16:00.779Z,1.30
2022-09-27T03:18:47.491Z,1.40
2022-09-27T03:21:33.037Z,1.08
2022-09-27T03:24:00.051Z,1.23
2022-09-27T03:26:28.633Z,1.35
2022-09-27T03:28:55.775Z,1.20
2022-09-27T03:31:22.867Z,1.40
2022-09-27T03:34:22.165Z,1.50
2022-09-27T03:36:49.386Z,1.83
2022-09-27T03:39:16.588Z,1.45
2022-09-27T03:41:43.718Z,1.55
2022-09-27T03:44:10.932Z,1.48
2022-09-27T03:46:37.945Z,1.35
2022-09-27T03:49:05.182Z,1.67
2022-09-27T03:51:32.201Z,2.22
2022-09-27T03:53:59.265Z,1.77
2022-09-27T03:56:26.255Z,1.52
2022-09-27T03:58:53.340Z,1.92
2022-09-27T04:01:20.769Z,1.77
2022-09-27T04:03:53.470Z,1.67
2022-09-27T04:06:27.141Z,1.80
2022-09-27T04:08:54.573Z,1.63
2022-09-27T04:11:24.482Z,1.73
2022-09-27T04:13:52.552Z,1.65
2022-09-27T04:16:22.040Z,1.75
2022-09-27T04:18:54.617Z,1.63
2022-09-27T04:21:44.457Z,1.92
2022-09-27T04:24:12.919Z,2.00
2022-09-27T04:26:49.090Z,1.90
2022-09-27T04:29:22.648Z,1.75
2022-09-27T04:31:52.559Z,1.85
2022-09-27T04:34:56.904Z,2.05
2022-09-27T04:37:27.048Z,1.65
2022-09-27T04:40:01.226Z,1.95
2022-09-27T04:42:28.841Z,1.80
2022-09-27T04:44:55.970Z,2.20
2022-09-27T04:47:23.216Z,2.08
2022-09-27T04:49:50.213Z,1.73
2022-09-27T04:52:17.280Z,2.33
2022-09-27T04:54:44.365Z,2.20
2022-09-27T04:57:12.784Z,1.90
2022-09-27T04:59:41.516Z,1.92
2022-09-27T05:02:08.733Z,1.77
2022-09-27T05:04:58.817Z,2.05
2022-09-27T05:07:28.950Z,1.95
2022-09-27T05:10:02.233Z,1.85
2022-09-27T05:12:29.877Z,2.00
2022-09-27T05:14:59.750Z,2.25
2022-09-27T05:17:52.372Z,1.85
2022-09-27T05:20:38.047Z,2.20
2022-09-27T05:23:27.839Z,2.03
2022-09-27T05:25:56.399Z,1.90
2022-09-27T05:28:26.608Z,2.03
2022-09-27T05:30:53.596Z,2.30
2022-09-27T05:33:22.276Z,1.67
2022-09-27T05:35:57.071Z,1.83
2022-09-27T05:38:30.108Z,2.00
2022-09-27T05:40:59.592Z,2.47
2022-09-27T05:43:28.261Z,1.92
2022-09-27T05:45:57.180Z,1.73
2022-09-27T05:48:24.349Z,1.40
2022-09-27T05:51:04.621Z,1.75
2022-09-27T05:53:32.452Z,1.65
2022-09-27T05:56:04.535Z,1.60
2022-09-27T06:01:19.871Z,1.25
2022-09-27T06:04:06.757Z,1.60
2022-09-27T06:06:58.848Z,1.90
2022-09-27T06:09:28.143Z,1.47
2022-09-27T06:11:56.753Z,1.23
2022-09-27T06:14:24.062Z,1.50
2022-09-27T06:16:58.896Z,1.70
2022-09-27T06:19:30.153Z,1.40
2022-09-27T06:21:57.234Z,1.58
2022-09-27T06:26:57.064Z,1.33
2022-09-27T06:29:37.515Z,1.48
2022-09-27T06:32:07.925Z,1.50
2022-09-27T06:34:47.127Z,1.30
2022-09-27T06:37:15.223Z,2.22
2022-09-27T06:39:42.438Z,1.50
2022-09-27T06:42:32.996Z,1.35
2022-09-27T06:45:17.888Z,1.58
2022-09-27T06:48:17.404Z,1.52
2022-09-27T06:50:49.676Z,1.60
2022-09-27T06:53:17.599Z,1.48
2022-09-27T06:55:45.347Z,2.10
2022-09-27T06:58:31.836Z,1.92
2022-09-27T07:01:18.131Z,1.92
2022-09-27T07:04:24.666Z,2.00
2022-09-27T07:07:10.511Z,1.33
2022-09-27T07:09:40.136Z,1.40
2022-09-27T07:12:07.764Z,1.85
2022-09-27T07:14:35.226Z,1.40
2022-09-27T07:17:03.455Z,2.00
2022-09-27T07:19:35.850Z,1.65
2022-09-27T07:22:02.916Z,1.48
2022-09-27T07:24:30.151Z,1.77
2022-09-27T07:26:57.173Z,1.85
2022-09-27T07:29:24.339Z,1.60
2022-09-27T07:31:53.310Z,1.88
2022-09-27T07:34:20.427Z,1.73
2022-09-27T07:36:47.454Z,1.65
2022-09-27T07:39:14.670Z,1.60
2022-09-27T07:41:43.575Z,1.55
2022-09-27T07:44:11.925Z,1.52
2022-09-27T07:46:51.110Z,1.40
2022-09-27T07:49:21.650Z,1.13
2022-09-27T07:52:05.296Z,1.48
2022-09-27T07:54:42.726Z,1.33
2022-09-27T07:57:32.608Z,1.20
2022-09-27T08:00:01.450Z,1.40
2022-09-27T08:02:28.479Z,1.42
2022-09-27T08:04:56.286Z,1.30
2022-09-27T08:07:26.889Z,0.95
2022-09-27T08:09:55.801Z,1.23
2022-09-27T08:12:23.575Z,1.20
2022-09-27T08:14:51.116Z,1.15
2022-09-27T08:17:19.416Z,1.00
2022-09-27T08:20:06.995Z,1.00
2022-09-27T08:22:57.178Z,1.35
2022-09-27T08:25:32.617Z,1.17
2022-09-27T08:28:18.017Z,0.95
2022-09-27T08:30:59.151Z,1.10
2022-09-27T08:33:31.932Z,1.40
2022-09-27T08:36:01.707Z,1.70
2022-09-27T08:38:29.022Z,1.60
2022-09-27T08:41:17.365Z,1.85
2022-09-27T08:44:17.657Z,1.60
2022-09-27T08:47:29.373Z,1.67
2022-09-27T08:50:11.080Z,1.25
2022-09-27T08:52:55.920Z,1.48
2022-09-27T08:56:03.685Z,1.52
2022-09-27T08:58:41.442Z,1.88
2022-09-27T09:01:29.443Z,1.83
2022-09-27T09:04:06.018Z,1.80
2022-09-27T09:06:59.860Z,1.45
2022-09-27T09:09:54.011Z,1.70
2022-09-27T09:12:50.122Z,1.65
2022-09-27T09:16:24.843Z,1.25
2022-09-27T09:19:27.092Z,1.13
2022-09-27T09:22:25.931Z,1.58
2022-09-27T09:25:06.511Z,1.38
2022-09-27T09:28:04.300Z,1.50
2022-09-27T09:31:15.249Z,1.60
2022-09-27T09:33:52.521Z,1.88
2022-09-27T09:36:43.256Z,1.45
2022-09-27T09:39:32.607Z,1.63
2022-09-27T09:42:13.418Z,2.03
2022-09-27T09:45:31.171Z,1.92
2022-09-27T09:48:15.267Z,2.30
2022-09-27T09:50:51.175Z,2.15
2022-09-27T09:53:39.224Z,2.42
2022-09-27T09:56:21.951Z,1.88
2022-09-27T09:59:02.481Z,1.98
2022-09-27T10:01:45.334Z,2.33
2022-09-27T10:04:25.599Z,1.90
2022-09-27T10:06:54.990Z,2.42
2022-09-27T10:09:27.092Z,1.90
2022-09-27T10:12:14.327Z,1.85
2022-09-27T10:14:47.118Z,2.15
2022-09-27T10:17:19.999Z,1.80
2022-09-27T10:19:54.134Z,2.00
2022-09-27T10:22:36.644Z,2.10
2022-09-27T10:25:12.072Z,2.33
2022-09-27T10:27:55.823Z,2.08
2022-09-27T10:30:35.267Z,2.25
2022-09-27T10:33:19.861Z,2.08
2022-09-27T10:35:53.243Z,1.45
2022-09-27T10:38:36.635Z,1.33
2022-09-27T10:41:24.983Z,1.40
2022-09-27T10:44:18.648Z,1.13
2022-09-27T10:46:56.581Z,1.08
2022-09-27T10:49:41.681Z,1.15
2022-09-27T10:52:27.223Z,0.95
2022-09-27T10:55:05.731Z,1.00
2022-09-27T10:57:33.135Z,0.73
2022-09-27T11:00:08.313Z,0.90
2022-09-27T11:02:39.831Z,0.77
2022-09-27T11:05:31.055Z,0.68
2022-09-27T11:08:02.942Z,0.75
2022-09-27T11:11:13.838Z,1.00
2022-09-27T11:13:58.612Z,0.80
2022-09-27T11:17:05.278Z,0.90
2022-09-27T11:19:59.134Z,0.93
2022-09-27T11:23:03.028Z,1.17
2022-09-27T11:26:17.312Z,1.15
2022-09-27T11:29:14.589Z,1.25
2022-09-27T11:32:19.433Z,1.08
2022-09-27T11:35:21.423Z,1.23
2022-09-27T11:38:34.541Z,1.42
2022-09-27T11:41:37.031Z,2.10
2022-09-27T11:44:43.946Z,1.48
2022-09-27T11:47:41.723Z,1.92
2022-09-27T11:50:25.950Z,1.73
2022-09-27T11:53:14.454Z,1.85
2022-09-27T11:56:13.799Z,1.75
2022-09-27T11:59:29.386Z,1.83
2022-09-27T12:02:34.138Z,2.00
2022-09-27T12:05:36.590Z,1.92
2022-09-27T12:08:08.756Z,1.90
2022-09-27T12:10:39.011Z,1.80
2022-09-27T12:13:10.284Z,1.80
2022-09-27T12:15:43.156Z,1.98
2022-09-27T12:18:29.395Z,1.38
2022-09-27T12:21:02.231Z,1.85
2022-09-27T12:23:54.618Z,1.55
2022-09-27T12:26:43.902Z,1.48
2022-09-27T12:29:36.250Z,1.73
2022-09-27T12:32:27.513Z,1.42
2022-09-27T12:35:00.088Z,1.15
2022-09-27T12:37:47.389Z,1.10
2022-09-27T12:40:29.613Z,1.55
2022-09-27T12:43:06.662Z,1.50
2022-09-27T12:46:03.425Z,0.95
2022-09-27T12:48:45.985Z,1.05
2022-09-27T12:51:19.216Z,1.33
2022-09-27T12:54:32.187Z,1.33
2022-09-27T12:57:29.623Z,1.00
2022-09-27T13:00:12.755Z,0.80
2022-09-27T13:03:15.423Z,0.80
2022-09-27T13:06:12.310Z,1.08
2022-09-27T13:09:25.243Z,0.85
2022-09-27T13:12:03.384Z,0.80
2022-09-27T13:14:39.185Z,0.50
2022-09-27T13:17:06.317Z,0.63
2022-09-27T13:19:36.129Z,0.73
2022-09-27T13:22:31.226Z,0.98
2022-09-27T13:25:50.618Z,0.75
2022-09-27T13:28:32.709Z,0.70
2022-09-27T13:31:14.050Z,1.33
2022-09-27T13:33:51.613Z,0.80
2022-09-27T13:36:33.631Z,1.08
2022-09-27T13:39:11.781Z,0.60
2022-09-27T13:42:16.977Z,0.93
2022-09-27T13:45:18.258Z,0.80
2022-09-27T13:47:49.538Z,0.70
2022-09-27T13:51:04.878Z,0.60
2022-09-27T13:53:46.486Z,0.60
2022-09-27T13:56:47.061Z,0.60
2022-09-27T13:59:28.413Z,0.35
2022-09-27T14:02:31.420Z,0.40
2022-09-27T14:05:01.372Z,0.60
2022-09-27T14:07:40.624Z,0.40
2022-09-27T14:10:16.468Z,0.50
2022-09-27T14:12:45.750Z,0.50
2022-09-27T14:15:39.606Z,0.28
2022-09-27T14:18:11.987Z,0.60
2022-09-27T14:20:43.482Z,0.63
2022-09-27T14:23:39.716Z,0.50
2022-09-27T14:26:24.309Z,0.38
2022-09-27T14:28:52.143Z,0.50
2022-09-27T14:31:26.762Z,0.40
2022-09-27T14:34:12.566Z,0.93
2022-09-27T14:37:20.857Z,0.60
2022-09-27T14:42:36.986Z,0.47
2022-09-27T14:45:40.142Z,0.47
2022-09-27T14:48:27.446Z,0.40
2022-09-27T14:51:19.346Z,0.38
2022-09-27T14:54:00.564Z,0.40
2022-09-27T14:56:34.614Z,0.52
2022-09-27T14:59:09.266Z,0.60
2022-09-27T15:01:39.258Z,0.30
2022-09-27T15:04:12.250Z,0.60
2022-09-27T15:06:39.727Z,0.63
2022-09-27T15:09:10.067Z,0.88
2022-09-27T15:11:39.287Z,0.32
2022-09-27T15:14:07.561Z,1.10
2022-09-27T15:16:34.744Z,0.60
2022-09-27T15:19:14.238Z,0.70
2022-09-27T15:21:41.258Z,0.70
2022-09-27T15:24:44.595Z,0.98
2022-09-27T15:27:18.600Z,0.80
2022-09-27T15:29:58.205Z,0.60
2022-09-27T15:32:28.511Z,0.40
2022-09-27T15:34:56.909Z,1.00
2022-09-27T15:37:35.330Z,0.63
2022-09-27T15:40:20.874Z,0.70
2022-09-27T15:43:00.173Z,0.50
2022-09-27T15:45:36.514Z,0.40
2022-09-27T15:48:18.123Z,0.60
2022-09-27T15:50:46.848Z,0.40
2022-09-27T15:53:36.601Z,0.90
2022-09-27T15:56:08.487Z,0.60
2022-09-27T15:58:37.206Z,0.57
2022-09-27T16:01:06.058Z,0.50
2022-09-27T16:03:33.681Z,0.60
2022-09-27T16:06:03.533Z,1.20
2022-09-27T16:08:30.591Z,0.63
2022-09-27T16:10:59.058Z,0.60
2022-09-27T16:13:31.806Z,0.52
2022-09-27T16:16:02.276Z,0.45
2022-09-27T16:18:30.892Z,0.55
2022-09-27T16:20:59.447Z,0.30
2022-09-27T16:23:26.389Z,0.45
2022-09-27T16:25:53.801Z,0.30
2022-09-27T16:28:20.989Z,0.47
2022-09-27T16:30:48.132Z,0.40
2022-09-27T16:33:15.409Z,0.55
2022-09-27T16:35:42.408Z,0.45
2022-09-27T16:38:09.551Z,0.60
2022-09-27T16:40:37.812Z,0.50
2022-09-27T16:43:07.234Z,0.50
2022-09-27T16:45:39.068Z,0.52
2022-09-27T16:48:06.027Z,0.63
2022-09-27T16:50:51.198Z,0.70
2022-09-27T16:53:18.337Z,0.68
2022-09-27T16:55:45.257Z,0.50
2022-09-27T16:58:12.203Z,0.57
2022-09-27T17:00:41.941Z,0.55
2022-09-27T17:03:09.074Z,0.60
2022-09-27T17:05:35.996Z,0.50
2022-09-27T17:08:03.048Z,0.43
2022-09-27T17:10:31.639Z,0.40
2022-09-27T17:12:58.625Z,0.43
2022-09-27T17:15:25.902Z,0.32
2022-09-27T17:17:53.187Z,0.57
2022-09-27T17:20:20.132Z,0.70
2022-09-27T17:22:47.051Z,0.50
2022-09-27T17:25:14.040Z,0.38
2022-09-27T17:27:40.964Z,0.82
2022-09-27T17:30:08.631Z,0.80
2022-09-27T17:32:35.649Z,0.50
2022-09-27T17:35:02.887Z,0.90
2022-09-27T17:37:30.227Z,0.60
2022-09-27T17:39:57.562Z,1.00
2022-09-27T17:42:25.267Z,0.60
2022-09-27T17:44:52.268Z,0.70
2022-09-27T17:47:37.579Z,0.70
2022-09-27T17:50:23.488Z,0.57
2022-09-27T17:52:51.704Z,0.57
2022-09-27T17:55:18.851Z,0.90
2022-09-27T17:57:50.334Z,1.13
2022-09-27T18:00:19.032Z,1.00
2022-09-27T18:02:46.307Z,1.02
2022-09-27T18:05:13.702Z,1.30
2022-09-27T18:07:40.714Z,0.90
2022-09-27T18:10:08.042Z,1.17
2022-09-27T18:12:35.276Z,0.88
2022-09-27T18:15:03.513Z,1.20
2022-09-27T18:17:30.933Z,1.08
2022-09-27T18:19:59.997Z,1.30
2022-09-27T18:22:31.011Z,1.30
2022-09-27T18:27:25.049Z,0.90
2022-09-27T18:29:52.529Z,0.93
2022-09-27T18:32:19.506Z,1.02
2022-09-27T18:34:46.543Z,1.17
2022-09-27T18:37:13.866Z,1.30
2022-09-27T18:39:40.926Z,1.23
2022-09-27T18:42:08.996Z,1.00
2022-09-27T18:44:36.053Z,1.15
2022-09-27T18:47:03.099Z,0.75
2022-09-27T18:49:33.796Z,0.95
2022-09-27T18:52:02.542Z,0.80
2022-09-27T18:54:29.767Z,1.40
2022-09-27T18:56:58.604Z,1.08
2022-09-27T18:59:25.566Z,1.20
2022-09-27T19:01:52.705Z,1.00
2022-09-27T19:04:24.061Z,0.85
2022-09-27T19:06:55.566Z,0.93
2022-09-27T19:09:23.419Z,0.88
2022-09-27T19:11:50.488Z,1.00
2022-09-27T19:14:21.313Z,0.95
2022-09-27T19:16:49.085Z,0.93
2022-09-27T19:19:17.574Z,1.10
2022-09-27T19:21:45.190Z,1.08
2022-09-27T19:24:15.128Z,0.73
2022-09-27T19:26:42.566Z,1.10
2022-09-27T19:29:10.579Z,1.10
2022-09-27T19:31:37.643Z,1.20
2022-09-27T19:34:04.652Z,1.00
2022-09-27T19:36:31.650Z,1.05
2022-09-27T19:38:59.121Z,0.80
2022-09-27T19:41:26.999Z,1.17
2022-09-27T19:43:55.936Z,0.90
2022-09-27T19:46:24.721Z,0.75
2022-09-27T19:48:58.043Z,1.17
2022-09-27T19:51:27.285Z,0.70
2022-09-27T19:53:54.833Z,1.00
2022-09-27T19:56:23.203Z,1.00
2022-09-27T19:58:50.426Z,1.00
2022-09-27T20:01:24.105Z,1.00
2022-09-27T20:03:55.156Z,1.10
2022-09-27T20:08:49.597Z,0.77
2022-09-27T20:11:22.275Z,1.00
2022-09-27T20:13:51.612Z,0.88
2022-09-27T20:16:22.361Z,1.25
2022-09-27T20:18:56.031Z,0.70
2022-09-27T20:21:27.285Z,0.93
2022-09-27T20:23:56.716Z,0.90
2022-09-27T20:26:27.134Z,0.63
2022-09-27T20:28:57.063Z,0.80
2022-09-27T20:31:30.154Z,0.80
2022-09-27T20:33:57.361Z,0.85
2022-09-27T20:36:29.008Z,0.88
2022-09-27T20:39:03.301Z,0.52
2022-09-27T20:41:34.450Z,0.85
2022-09-27T20:44:07.896Z,0.77
2022-09-27T20:46:36.761Z,1.10
2022-09-27T20:49:09.631Z,0.82
2022-09-27T20:51:39.591Z,0.80
2022-09-27T20:54:09.324Z,0.93
2022-09-27T20:56:46.173Z,0.80
2022-09-27T20:59:17.278Z,0.93
2022-09-27T21:01:47.007Z,0.70
2022-09-27T21:04:16.816Z,0.95
2022-09-27T21:06:44.845Z,0.77
2022-09-27T21:09:18.388Z,0.70
2022-09-27T21:11:51.957Z,0.77
2022-09-27T21:14:19.186Z,0.70
2022-09-27T21:16:46.147Z,0.93
2022-09-27T21:19:13.565Z,0.80
2022-09-27T21:21:40.757Z,0.73
2022-09-27T21:24:07.813Z,0.60
2022-09-27T21:26:35.265Z,0.75
2022-09-27T21:29:08.380Z,0.93
2022-09-27T21:31:36.212Z,0.77
2022-09-27T21:34:05.171Z,1.13
2022-09-27T21:36:38.226Z,0.90
2022-09-27T21:39:08.459Z,0.90
2022-09-27T21:41:36.502Z,0.90
2022-09-27T21:44:06.064Z,0.95
2022-09-27T21:46:33.672Z,0.95
2022-09-27T21:49:02.259Z,0.80
2022-09-27T21:51:36.855Z,0.65
2022-09-27T21:54:07.708Z,0.82
2022-09-27T21:56:38.573Z,0.73
2022-09-27T21:59:11.371Z,0.85
2022-09-27T22:01:38.903Z,0.82
2022-09-27T22:04:07.932Z,0.85
2022-09-27T22:06:37.709Z,0.90
2022-09-27T22:09:14.011Z,0.88
2022-09-27T22:11:47.283Z,1.00
2022-09-27T22:14:19.436Z,1.10
2022-09-27T22:16:47.742Z,1.10
2022-09-27T22:19:16.035Z,1.00
2022-09-27T22:21:43.696Z,0.52
2022-09-27T22:24:17.640Z,0.47
2022-09-27T22:26:50.724Z,0.60
2022-09-27T22:29:18.654Z,0.70
2022-09-27T22:31:45.881Z,0.80
2022-09-27T22:34:28.528Z,0.60
2022-09-27T22:37:00.740Z,0.80
2022-09-27T22:39:27.761Z,0.73
2022-09-27T22:41:54.721Z,0.60
2022-09-27T22:44:22.707Z,0.65
2022-09-27T22:46:49.757Z,0.60
2022-09-27T22:49:16.825Z,0.50
2022-09-27T22:51:43.832Z,0.57
2022-09-27T22:54:10.788Z,0.60
2022-09-27T22:56:37.764Z,0.63
2022-09-27T22:59:04.765Z,0.60
2022-09-27T23:01:31.682Z,0.90
2022-09-27T23:03:59.268Z,0.68
2022-09-27T23:06:26.312Z,0.80
2022-09-27T23:08:54.983Z,0.50
2022-09-27T23:11:22.677Z,0.70
2022-09-27T23:13:50.801Z,0.45
2022-09-27T23:16:23.360Z,0.80
2022-09-27T23:18:56.453Z,0.43
2022-09-27T23:21:25.783Z,0.40
2022-09-27T23:23:55.189Z,0.70
2022-09-27T23:26:25.943Z,0.63
2022-09-27T23:28:57.929Z,0.50
2022-09-27T23:31:28.064Z,0.60
2022-09-27T23:33:56.112Z,0.60
2022-09-27T23:36:26.717Z,0.55
2022-09-27T23:38:57.724Z,0.65
2022-09-27T23:41:24.848Z,0.50
2022-09-27T23:43:53.310Z,0.50
2022-09-27T23:46:21.234Z,0.30
2022-09-27T23:48:48.614Z,0.45
2022-09-27T23:51:15.716Z,0.50
2022-09-27T23:53:44.423Z,0.50
2022-09-27T23:56:17.055Z,0.32
2022-09-27T23:58:46.016Z,0.50
